Time;durP1;ratioP1;P1;durP2;ratioP2;P2;SDS_P1;SDS_P2;PMS_P1;PMS_P2;Temp;Humidity;BMP_temperature;BMP_pressure;BME280_temperature;BME280_humidity;BME280_pressure;Samples;Min_cycle;Max_cycle;Signal;HPM_P1;HPM_P2
2023/01/11 00:00:05;;;;;;;3.13;1.42;;;;;;;8.14;100.00;100608.81;5082731;28;20437;-80
2023/01/11 00:02:31;;;;;;;3.42;1.63;;;;;;;8.17;100.00;100620.88;5071443;28;20461;-81
2023/01/11 00:04:56;;;;;;;2.30;1.55;;;;;;;8.18;100.00;100628.59;5071280;28;20135;-80
2023/01/11 00:07:22;;;;;;;2.63;1.63;;;;;;;8.21;100.00;100630.25;5070464;28;20072;-79
2023/01/11 00:09:48;;;;;;;3.20;1.55;;;;;;;8.24;100.00;100630.22;5071309;28;20566;-80
2023/01/11 00:12:13;;;;;;;2.85;1.60;;;;;;;8.25;100.00;100634.50;5072171;28;20024;-80
2023/01/11 00:14:39;;;;;;;2.70;1.50;;;;;;;8.27;100.00;100626.72;5068590;28;20085;-80
2023/01/11 00:17:04;;;;;;;2.47;1.58;;;;;;;8.29;100.00;100633.56;5078623;28;20036;-80
2023/01/11 00:19:30;;;;;;;2.35;1.25;;;;;;;8.30;100.00;100624.91;5074809;28;20389;-80
2023/01/11 00:21:55;;;;;;;6.32;1.25;;;;;;;8.34;100.00;100630.88;5075365;28;20069;-80
2023/01/11 00:24:20;;;;;;;2.28;1.20;;;;;;;8.37;100.00;100619.63;5073937;28;20430;-80
2023/01/11 00:26:46;;;;;;;1.67;1.00;;;;;;;8.41;100.00;100610.88;5072792;28;20502;-81
2023/01/11 00:29:11;;;;;;;2.78;1.30;;;;;;;8.46;100.00;100614.25;5053105;28;20028;-80
2023/01/11 00:31:36;;;;;;;3.85;1.75;;;;;;;8.45;100.00;100613.41;5072326;28;20028;-80
2023/01/11 00:34:01;;;;;;;2.88;1.17;;;;;;;8.47;100.00;100596.03;5074052;28;20036;-80
2023/01/11 00:36:27;;;;;;;2.28;1.20;;;;;;;8.51;100.00;100594.28;5070995;28;20024;-80
2023/01/11 00:38:54;;;;;;;1.55;0.90;;;;;;;8.58;100.00;100597.59;5072619;28;20427;-80
2023/01/11 00:49:33;;;;;;;1.50;1.00;;;;;;;8.68;100.00;100587.88;5074485;28;20051;-80
2023/01/11 00:51:59;;;;;;;2.10;1.10;;;;;;;8.69;100.00;100589.59;5075299;28;20032;-80
2023/01/11 00:54:24;;;;;;;1.77;1.00;;;;;;;8.71;100.00;100580.03;5073810;28;20035;-80
2023/01/11 00:56:49;;;;;;;2.13;1.20;;;;;;;8.73;100.00;100586.91;5071847;28;20020;-80
2023/01/11 00:59:15;;;;;;;2.17;1.02;;;;;;;8.71;100.00;100587.81;5073497;28;20138;-80
2023/01/11 01:01:40;;;;;;;1.48;0.95;;;;;;;8.69;100.00;100580.06;5071440;28;20029;-80
2023/01/11 01:04:05;;;;;;;1.48;0.98;;;;;;;8.68;100.00;100577.53;5071630;28;20131;-80
2023/01/11 01:06:31;;;;;;;2.47;1.30;;;;;;;8.68;100.00;100577.53;5068578;28;20388;-79
2023/01/11 01:08:57;;;;;;;2.17;1.05;;;;;;;8.69;100.00;100571.44;5073373;28;20063;-80
2023/01/11 01:11:22;;;;;;;2.63;1.08;;;;;;;8.67;100.00;100576.66;5069846;28;20028;-80
2023/01/11 01:16:31;;;;;;;2.25;1.20;;;;;;;8.64;100.00;100571.53;5069847;28;20044;-80
2023/01/11 01:18:58;;;;;;;1.55;1.15;;;;;;;8.62;100.00;100571.56;5071526;28;20036;-80
2023/01/11 01:21:24;;;;;;;2.05;1.20;;;;;;;8.63;100.00;100575.88;5068082;28;20143;-80
2023/01/11 01:23:53;;;;;;;1.63;0.98;;;;;;;8.62;100.00;100573.31;5054602;28;20029;-80
2023/01/11 01:26:19;;;;;;;1.45;1.15;;;;;;;8.63;100.00;100581.06;5043978;28;20029;-80
2023/01/11 01:28:44;;;;;;;2.60;1.50;;;;;;;8.62;100.00;100589.72;5068738;28;20111;-80
2023/01/11 01:31:09;;;;;;;1.67;1.15;;;;;;;8.63;100.00;100586.25;5066580;28;20017;-80
2023/01/11 01:33:35;;;;;;;3.42;1.20;;;;;;;8.64;100.00;100587.94;5073170;28;20078;-80
2023/01/11 01:36:01;;;;;;;1.65;1.10;;;;;;;8.63;100.00;100588.84;5073163;28;20424;-80
2023/01/11 01:38:27;;;;;;;2.55;1.20;;;;;;;8.64;100.00;100593.13;5072705;28;20039;-80
2023/01/11 01:40:52;;;;;;;2.55;1.13;;;;;;;8.62;100.00;100584.53;5072789;28;20365;-80
2023/01/11 01:43:17;;;;;;;1.35;1.17;;;;;;;8.65;100.00;100584.47;5087029;28;20383;-80
2023/01/11 01:45:43;;;;;;;1.55;1.20;;;;;;;8.64;100.00;100582.75;5072943;28;20459;-80
2023/01/11 01:48:18;;;;;;;1.40;1.30;;;;;;;8.62;100.00;100586.28;5072280;28;20482;-80
2023/01/11 01:50:52;;;;;;;2.15;1.00;;;;;;;8.64;100.00;100581.91;5070047;28;20475;-80
2023/01/11 01:53:24;;;;;;;3.58;1.30;;;;;;;8.65;100.00;100574.09;5072414;28;20526;-79
2023/01/11 01:55:53;;;;;;;1.30;1.13;;;;;;;8.65;100.00;100583.59;5070577;28;20048;-80
2023/01/11 01:58:28;;;;;;;1.60;1.10;;;;;;;8.67;100.00;100581.00;5075151;28;20031;-79
2023/01/11 02:00:53;;;;;;;2.25;1.20;;;;;;;8.68;100.00;100573.16;5069114;28;20017;-80
2023/01/11 02:03:23;;;;;;;2.03;1.40;;;;;;;8.69;100.00;100574.03;5072509;28;20052;-80
2023/01/11 02:05:51;;;;;;;1.42;1.20;;;;;;;8.72;100.00;100576.53;5072597;28;20127;-80
2023/01/11 02:08:26;;;;;;;2.10;1.05;;;;;;;8.73;100.00;100575.66;5070665;28;20480;-80
2023/01/11 02:10:53;;;;;;;1.92;1.13;;;;;;;8.74;100.00;100573.03;5071826;28;20032;-80
2023/01/11 02:13:18;;;;;;;1.25;1.02;;;;;;;8.75;100.00;100569.56;5071556;28;20070;-80
2023/01/11 02:15:44;;;;;;;1.10;0.95;;;;;;;8.77;100.00;100569.50;5078671;28;20425;-80
2023/01/11 02:18:12;;;;;;;1.50;1.00;;;;;;;8.79;100.00;100576.41;5072229;28;20223;-80
2023/01/11 02:20:53;;;;;;;2.08;1.02;;;;;;;8.79;100.00;100566.03;5071492;28;20082;-80
2023/01/11 02:23:49;;;;;;;1.58;1.10;;;;;;;8.83;100.00;100571.97;5071963;28;20324;-81
2023/01/11 02:26:52;;;;;;;1.85;1.20;;;;;;;8.84;100.00;100568.50;5071466;28;20127;-80
2023/01/11 02:29:38;;;;;;;3.05;1.27;;;;;;;8.86;100.00;100573.63;5057695;28;20031;-80
2023/01/11 02:32:23;;;;;;;1.15;1.02;;;;;;;8.87;100.00;100570.16;5071470;28;20526;-80
2023/01/11 02:35:10;;;;;;;2.28;1.10;;;;;;;8.88;100.00;100575.31;5068852;28;20020;-79
2023/01/11 02:38:00;;;;;;;1.70;1.05;;;;;;;8.90;100.00;100563.16;5070902;28;20032;-80
2023/01/11 02:40:43;;;;;;;2.00;1.38;;;;;;;8.93;100.00;100565.69;5086617;28;20066;-80
2023/01/11 02:46:10;;;;;;;1.30;1.10;;;;;;;8.99;100.00;100563.84;5071924;28;20074;-80
2023/01/11 02:48:41;;;;;;;1.42;1.00;;;;;;;9.01;100.00;100556.88;5072235;28;20024;-80
2023/01/11 02:51:13;;;;;;;1.95;1.25;;;;;;;9.02;100.00;100550.78;5072935;28;20033;-80
2023/01/11 02:53:53;;;;;;;1.35;1.05;;;;;;;9.01;100.00;100551.69;5071136;28;20020;-80
2023/01/11 02:56:22;;;;;;;1.70;0.98;;;;;;;9.02;100.00;100556.81;5068192;28;20024;-80
2023/01/11 02:58:49;;;;;;;1.40;1.00;;;;;;;9.04;100.00;100549.03;5072479;28;20115;-80
2023/01/11 03:01:15;;;;;;;1.20;0.90;;;;;;;9.04;100.00;100554.22;5062473;28;20036;-81
2023/01/11 03:03:41;;;;;;;1.80;1.00;;;;;;;9.06;100.00;100552.41;5068806;28;20045;-80
2023/01/11 03:06:22;;;;;;;1.25;1.13;;;;;;;9.09;100.00;100565.31;5074205;28;20042;-80
2023/01/11 03:09:03;;;;;;;1.45;1.10;;;;;;;9.10;100.00;100554.03;5073940;28;20058;-81
2023/01/11 03:14:47;;;;;;;1.20;0.90;;;;;;;9.12;100.00;100544.47;5062465;28;20073;-81
2023/01/11 03:17:15;;;;;;;2.08;1.50;;;;;;;9.16;100.00;100543.53;5071639;28;20028;-80
2023/01/11 03:19:59;;;;;;;2.13;0.93;;;;;;;9.14;100.00;100540.09;5071184;28;20030;-81
2023/01/11 03:22:33;;;;;;;1.20;1.08;;;;;;;9.16;100.00;100543.53;5070406;28;20020;-80
2023/01/11 03:25:15;;;;;;;1.20;1.10;;;;;;;9.17;100.00;100542.63;5075147;28;20040;-80
2023/01/11 03:27:56;;;;;;;2.70;1.10;;;;;;;9.17;100.00;100540.03;5052620;28;20096;-81
2023/01/11 03:30:37;;;;;;;1.25;1.10;;;;;;;9.20;100.00;100544.28;5065305;28;20082;-81
2023/01/11 03:33:09;;;;;;;2.35;1.20;;;;;;;9.21;100.00;100551.19;5065342;28;20511;-80
2023/01/11 03:35:46;;;;;;;1.40;1.10;;;;;;;9.21;100.00;100533.88;5061507;28;20029;-80
2023/01/11 03:38:34;;;;;;;1.45;1.02;;;;;;;9.22;100.00;100542.50;5071445;28;20052;-80
2023/01/11 03:41:14;;;;;;;1.40;1.10;;;;;;;9.24;100.00;100545.94;5077572;28;20090;-80
2023/01/11 03:43:42;;;;;;;1.42;1.00;;;;;;;9.24;100.00;100546.75;5052364;28;20067;-80
2023/01/11 03:46:08;;;;;;;1.10;1.00;;;;;;;9.27;100.00;100546.69;5071115;28;20095;-80
2023/01/11 03:48:43;;;;;;;1.55;0.90;;;;;;;9.27;100.00;100549.28;5071609;28;20471;-80
2023/01/11 03:51:14;;;;;;;1.23;0.93;;;;;;;9.30;100.00;100553.56;5062650;28;20476;-80
2023/01/11 03:53:44;;;;;;;2.00;1.10;;;;;;;9.30;100.00;100544.91;5059180;28;20032;-80
2023/01/11 03:56:12;;;;;;;1.17;0.80;;;;;;;9.31;100.00;100551.81;5075913;28;20059;-80
2023/01/11 03:58:38;;;;;;;1.48;0.90;;;;;;;9.32;100.00;100554.34;5085833;28;20020;-80
2023/01/11 04:01:04;;;;;;;1.10;0.98;;;;;;;9.33;100.00;100550.88;5072666;28;20098;-80
2023/01/11 04:03:29;;;;;;;1.25;0.93;;;;;;;9.33;100.00;100545.69;5073956;28;20071;-80
2023/01/11 04:05:59;;;;;;;1.00;0.90;;;;;;;9.32;100.00;100559.56;5073992;28;20391;-80
2023/01/11 04:08:25;;;;;;;1.10;1.00;;;;;;;9.32;100.00;100556.97;5073189;28;20044;-80
2023/01/11 04:10:50;;;;;;;2.08;0.90;;;;;;;9.33;100.00;100547.44;5065182;28;20059;-81
2023/01/11 04:13:16;;;;;;;0.82;0.80;;;;;;;9.34;100.00;100554.34;5074686;28;20029;-80
2023/01/11 04:15:41;;;;;;;2.83;1.05;;;;;;;9.33;100.00;100550.88;5064727;28;20032;-80
2023/01/11 04:18:06;;;;;;;0.88;0.80;;;;;;;9.33;100.00;100556.06;5071959;28;20024;-81
2023/01/11 04:20:34;;;;;;;1.05;0.90;;;;;;;9.34;100.00;100567.31;5070410;28;20016;-80
2023/01/11 04:22:59;;;;;;;0.90;0.90;;;;;;;9.36;100.00;100565.53;5075198;28;20028;-80
2023/01/11 04:25:25;;;;;;;1.85;0.80;;;;;;;9.36;100.00;100568.97;5068572;28;20028;-80
2023/01/11 04:27:50;;;;;;;1.40;0.98;;;;;;;9.37;100.00;100568.09;5074701;28;20020;-80
2023/01/11 04:30:16;;;;;;;1.40;0.80;;;;;;;9.38;100.00;100569.78;5066396;28;20032;-80
2023/01/11 04:32:41;;;;;;;1.00;0.80;;;;;;;9.38;100.00;100559.41;5069602;28;20505;-81
2023/01/11 04:35:07;;;;;;;1.00;0.90;;;;;;;9.39;100.00;100562.88;5071930;28;20475;-80
2023/01/11 04:37:32;;;;;;;1.17;0.80;;;;;;;9.41;100.00;100566.25;5071535;28;20028;-80
2023/01/11 04:39:57;;;;;;;1.30;1.20;;;;;;;9.43;100.00;100566.25;5074667;28;20025;-80
2023/01/11 04:42:23;;;;;;;0.77;0.75;;;;;;;9.45;100.00;100573.09;5074118;28;20025;-81
2023/01/11 04:44:50;;;;;;;0.77;0.70;;;;;;;9.46;100.00;100572.19;5074636;28;20024;-80
2023/01/11 04:47:17;;;;;;;0.80;0.70;;;;;;;9.48;100.00;100575.59;5072944;28;20037;-80
2023/01/11 04:49:43;;;;;;;1.35;0.90;;;;;;;9.51;100.00;100578.13;5074074;28;20382;-80
2023/01/11 04:52:10;;;;;;;1.60;1.00;;;;;;;9.51;100.00;100569.47;5073117;28;20029;-80
2023/01/11 04:54:36;;;;;;;1.42;1.00;;;;;;;9.55;100.00;100584.97;5071911;28;20035;-80
2023/01/11 04:57:01;;;;;;;2.47;1.48;;;;;;;9.57;100.00;100580.56;5073008;28;20111;-81
2023/01/11 04:59:27;;;;;;;1.20;1.10;;;;;;;9.61;100.00;100583.06;5072390;28;20021;-80
2023/01/11 05:01:52;;;;;;;1.80;1.25;;;;;;;9.62;100.00;100583.06;5071992;28;20089;-81
2023/01/11 05:04:17;;;;;;;1.90;1.40;;;;;;;9.66;100.00;100595.03;5073371;28;20048;-80
2023/01/11 05:06:43;;;;;;;2.05;1.48;;;;;;;9.67;100.00;100590.72;5079920;28;20020;-80
2023/01/11 05:09:12;;;;;;;1.40;1.30;;;;;;;9.70;100.00;100591.47;5073924;28;20036;-80
2023/01/11 05:11:37;;;;;;;2.88;1.30;;;;;;;9.71;100.00;100587.16;5072491;28;20117;-80
2023/01/11 05:14:03;;;;;;;1.67;1.38;;;;;;;9.72;100.00;100588.88;5070708;28;20048;-81
2023/01/11 05:16:28;;;;;;;3.42;1.40;;;;;;;9.72;100.00;100583.66;5072714;28;20032;-80
2023/01/11 05:18:56;;;;;;;1.70;1.58;;;;;;;9.73;100.00;100595.75;5065052;28;20375;-80
2023/01/11 05:21:23;;;;;;;1.83;1.60;;;;;;;9.74;100.00;100591.41;5056665;28;20043;-80
2023/01/11 05:23:49;;;;;;;2.47;1.50;;;;;;;9.75;100.00;100595.72;5067011;28;20032;-80
2023/01/11 05:26:18;;;;;;;1.80;1.40;;;;;;;9.72;100.00;100583.66;5073482;28;20032;-80
2023/01/11 05:28:44;;;;;;;2.10;1.60;;;;;;;9.77;100.00;100605.16;5066114;28;20074;-81
2023/01/11 05:31:09;;;;;;;2.35;1.50;;;;;;;9.78;100.00;100614.66;5069694;28;20031;-81
2023/01/11 05:33:35;;;;;;;2.20;1.55;;;;;;;9.78;100.00;100603.44;5067614;28;20026;-80
2023/01/11 05:36:05;;;;;;;1.52;1.33;;;;;;;9.78;100.00;100614.66;5072817;28;20492;-80
2023/01/11 05:38:31;;;;;;;2.30;1.92;;;;;;;9.78;100.00;100612.06;5066185;28;20021;-81
2023/01/11 05:40:58;;;;;;;2.45;1.85;;;;;;;9.79;100.00;100613.78;5061646;28;20473;-80
2023/01/11 05:43:24;;;;;;;3.45;2.25;;;;;;;9.79;100.00;100611.16;5060710;28;20115;-80
2023/01/11 05:45:50;;;;;;;3.20;2.05;;;;;;;9.80;100.00;100612.03;5066273;28;20107;-80
2023/01/11 05:48:15;;;;;;;3.42;2.42;;;;;;;9.78;100.00;100612.06;5065427;28;20033;-81
2023/01/11 05:50:41;;;;;;;3.33;2.55;;;;;;;9.78;100.00;100614.66;5072624;28;20476;-82
2023/01/11 05:53:06;;;;;;;5.72;2.67;;;;;;;9.76;100.00;100610.41;5073492;28;20028;-81
2023/01/11 05:55:31;;;;;;;4.25;3.00;;;;;;;9.76;100.00;100611.25;5064763;28;20020;-81
2023/01/11 05:57:57;;;;;;;3.38;2.58;;;;;;;9.77;100.00;100614.72;5059709;28;20099;-81
2023/01/11 06:00:23;;;;;;;4.80;3.00;;;;;;;9.77;100.00;100617.31;5066999;28;20028;-81
2023/01/11 06:02:48;;;;;;;4.60;2.70;;;;;;;9.77;100.00;100609.53;5059113;28;20265;-81
2023/01/11 06:05:14;;;;;;;4.93;3.10;;;;;;;9.76;100.00;100621.63;5068092;28;20045;-81
2023/01/11 06:07:39;;;;;;;5.18;3.10;;;;;;;9.78;100.00;100619.84;5068661;28;20122;-80
2023/01/11 06:10:05;;;;;;;5.82;3.22;;;;;;;9.75;100.00;100617.34;5070622;28;20056;-81
2023/01/11 06:12:30;;;;;;;6.82;3.47;;;;;;;9.76;100.00;100618.19;5058985;28;20083;-81
2023/01/11 06:14:56;;;;;;;5.32;2.88;;;;;;;9.77;100.00;100638.94;5064224;28;20021;-81
2023/01/11 06:17:21;;;;;;;5.68;2.90;;;;;;;9.74;100.00;100636.41;5044971;28;20027;-80
2023/01/11 06:19:46;;;;;;;5.90;2.80;;;;;;;9.71;100.00;100641.72;5051609;28;20028;-81
2023/01/11 06:22:11;;;;;;;6.28;2.22;;;;;;;9.68;100.00;100645.22;5058994;28;20044;-81
2023/01/11 06:24:37;;;;;;;6.55;2.17;;;;;;;9.66;100.00;100648.75;5062715;28;20086;-81
2023/01/11 06:27:02;;;;;;;8.50;1.75;;;;;;;9.64;100.00;100654.00;5063293;28;20066;-81
2023/01/11 06:29:27;;;;;;;8.02;1.90;;;;;;;9.57;100.00;100648.06;5064918;28;20081;-81
2023/01/11 06:31:53;;;;;;;9.23;2.00;;;;;;;9.57;100.00;100647.25;5070514;28;20024;-81
2023/01/11 06:34:18;;;;;;;9.65;2.03;;;;;;;9.51;100.00;100663.81;5070435;28;20036;-80
2023/01/11 06:36:43;;;;;;;6.85;1.80;;;;;;;9.49;100.00;100667.34;5064530;28;20387;-81
2023/01/11 06:39:09;;;;;;;11.27;1.58;;;;;;;9.46;100.00;100664.84;5071943;28;20078;-81
2023/01/11 06:41:35;;;;;;;10.35;1.77;;;;;;;9.41;100.00;100672.72;5070759;28;20028;-81
2023/01/11 06:44:00;;;;;;;5.60;1.70;;;;;;;9.37;100.00;100671.09;5072948;28;20027;-81
2023/01/11 06:46:25;;;;;;;8.27;1.63;;;;;;;9.35;100.00;100689.28;5069799;28;20158;-81
2023/01/11 06:48:50;;;;;;;5.70;1.40;;;;;;;9.32;100.00;100699.75;5075022;28;20025;-81
2023/01/11 06:51:16;;;;;;;11.38;1.60;;;;;;;9.29;100.00;100714.53;5070685;28;20376;-81
2023/01/11 06:53:42;;;;;;;7.57;1.50;;;;;;;9.27;100.00;100691.22;5076020;28;20094;-81
2023/01/11 06:56:11;;;;;;;9.65;1.65;;;;;;;9.23;100.00;100694.78;5069023;28;20032;-81
2023/01/11 06:58:37;;;;;;;10.73;1.30;;;;;;;9.21;100.00;100704.31;5067658;28;20074;-81
2023/01/11 07:01:02;;;;;;;9.63;1.50;;;;;;;9.18;100.00;100714.78;5067990;28;20442;-81
2023/01/11 07:03:28;;;;;;;9.52;1.40;;;;;;;9.15;100.00;100736.47;5068475;28;20495;-81
2023/01/11 07:05:57;;;;;;;7.57;1.40;;;;;;;9.14;100.00;100721.78;5078510;28;20071;-81
2023/01/11 07:08:26;;;;;;;7.90;1.42;;;;;;;9.13;100.00;100725.25;5069713;28;20032;-81
2023/01/11 07:10:51;;;;;;;8.70;1.30;;;;;;;9.11;100.00;100727.03;5072171;28;20021;-81
2023/01/11 07:13:17;;;;;;;9.70;1.58;;;;;;;9.10;100.00;100725.31;5068902;28;20035;-81
2023/01/11 07:15:44;;;;;;;8.38;1.13;;;;;;;9.07;100.00;100721.06;5071698;28;20035;-81
2023/01/11 07:18:10;;;;;;;9.57;1.70;;;;;;;9.06;100.00;100723.69;5064183;28;20047;-81
2023/01/11 07:20:36;;;;;;;9.07;1.40;;;;;;;9.06;100.00;100731.47;5065926;28;20040;-81
2023/01/11 07:23:01;;;;;;;9.55;1.58;;;;;;;9.04;100.00;100751.44;5070856;28;20040;-81
2023/01/11 07:25:27;;;;;;;13.55;1.65;;;;;;;9.02;100.00;100742.81;5066096;28;20020;-81
2023/01/11 07:28:05;;;;;;;9.75;1.60;;;;;;;9.04;99.26;100741.03;5057906;28;20521;-80
2023/01/11 07:30:33;;;;;;;12.85;1.90;;;;;;;9.02;99.33;100750.59;5069995;28;20400;-81
2023/01/11 07:32:59;;;;;;;7.95;1.67;;;;;;;9.00;99.49;100760.16;5071864;28;20032;-81
2023/01/11 07:35:26;;;;;;;7.57;1.55;;;;;;;8.98;99.50;100761.91;5070475;28;20041;-81
2023/01/11 07:37:51;;;;;;;9.23;1.60;;;;;;;8.98;99.43;100770.53;5067586;28;20059;-81
2023/01/11 07:40:17;;;;;;;10.15;1.70;;;;;;;8.95;99.50;100758.50;5071601;28;20103;-81
2023/01/11 07:45:35;;;;;;;13.35;2.13;;;;;;;8.93;99.33;100765.47;5061956;28;20092;-81
2023/01/11 07:48:03;;;;;;;13.23;1.65;;;;;;;8.91;99.76;100772.41;5064352;28;20675;-81
2023/01/11 07:50:28;;;;;;;12.15;1.60;;;;;;;8.90;99.11;100794.06;5069210;28;20024;-81
2023/01/11 07:52:54;;;;;;;10.40;1.60;;;;;;;8.89;99.08;100794.09;5068658;28;20020;-81
2023/01/11 07:55:19;;;;;;;10.38;1.83;;;;;;;8.86;98.87;100795.03;5070531;28;20029;-81
2023/01/11 07:57:44;;;;;;;8.32;1.60;;;;;;;8.84;98.69;100801.09;5061122;28;20113;-81
2023/01/11 08:00:10;;;;;;;10.27;1.70;;;;;;;8.82;98.18;100816.72;5061893;28;20115;-81
2023/01/11 08:02:35;;;;;;;9.57;1.48;;;;;;;8.80;98.54;100813.28;5063579;28;20148;-81
2023/01/11 08:05:01;;;;;;;11.05;2.22;;;;;;;8.78;98.05;100825.44;5070376;28;20040;-81
2023/01/11 08:07:26;;;;;;;9.57;1.45;;;;;;;8.77;97.99;100834.97;5066910;28;20036;-81
2023/01/11 08:09:51;;;;;;;10.98;1.60;;;;;;;8.73;97.68;100830.69;5069444;28;20032;-80
2023/01/11 08:15:00;;;;;;;13.43;1.85;;;;;;;8.69;97.08;100839.41;5061946;28;20083;-81
2023/01/11 08:17:26;;;;;;;8.73;1.20;;;;;;;8.68;96.84;100845.47;5067928;28;20072;-81
2023/01/11 08:19:51;;;;;;;9.85;1.50;;;;;;;8.65;96.97;100841.22;5060557;28;20025;-81
2023/01/11 08:22:17;;;;;;;10.52;1.65;;;;;;;8.63;96.80;100855.94;5061044;28;20024;-81
2023/01/11 08:24:42;;;;;;;12.25;1.80;;;;;;;8.63;96.80;100873.22;5063019;28;20074;-82
2023/01/11 08:27:07;;;;;;;11.40;1.70;;;;;;;8.60;96.52;100871.56;5065806;28;20032;-81
2023/01/11 08:29:33;;;;;;;8.82;1.42;;;;;;;8.59;96.25;100875.03;5066339;28;20036;-81
2023/01/11 08:31:59;;;;;;;14.05;1.80;;;;;;;8.58;96.30;100896.66;5065795;28;20021;-81
2023/01/11 08:34:26;;;;;;;9.20;1.55;;;;;;;8.58;96.30;100911.38;5050602;28;20037;-81
2023/01/11 08:36:52;;;;;;;14.43;1.65;;;;;;;8.58;96.34;100908.78;5070953;28;20024;-82
2023/01/11 08:39:17;;;;;;;16.83;2.15;;;;;;;8.58;96.15;100911.38;5068407;28;20080;-81
2023/01/11 08:41:43;;;;;;;8.25;1.33;;;;;;;8.58;96.10;100920.00;5073617;28;20078;-81
2023/01/11 08:44:09;;;;;;;11.35;1.45;;;;;;;8.58;95.83;100913.97;5071325;28;20028;-81
2023/01/11 08:46:36;;;;;;;12.45;1.65;;;;;;;8.58;95.57;100920.00;5073381;28;20031;-81
2023/01/11 08:49:02;;;;;;;6.63;1.40;;;;;;;8.57;95.73;100920.88;5077421;28;20029;-81
2023/01/11 08:51:27;;;;;;;9.52;1.40;;;;;;;8.57;95.97;100910.50;5057227;28;20066;-81
2023/01/11 08:53:52;;;;;;;9.23;1.30;;;;;;;8.55;96.00;100920.03;5057652;28;20037;-81
2023/01/11 08:56:18;;;;;;;9.90;1.40;;;;;;;8.52;95.47;100922.69;5070965;28;20036;-81
2023/01/11 08:58:43;;;;;;;11.63;1.67;;;;;;;8.50;95.81;100917.53;5065553;28;20085;-81
2023/01/11 09:01:08;;;;;;;6.80;1.50;;;;;;;8.49;95.85;100920.16;5073082;28;20020;-81
2023/01/11 09:03:34;;;;;;;11.15;1.63;;;;;;;8.49;95.67;100926.19;5075267;28;20052;-80
2023/01/11 09:06:00;;;;;;;10.70;1.45;;;;;;;8.45;95.33;100939.19;5065069;28;20066;-80
2023/01/11 09:08:26;;;;;;;9.05;1.33;;;;;;;8.41;95.45;100937.50;5071235;28;20055;-81
2023/01/11 09:10:52;;;;;;;13.00;1.70;;;;;;;8.40;95.39;100938.38;5069099;28;20032;-81
2023/01/11 09:13:17;;;;;;;12.00;1.90;;;;;;;8.38;95.21;100938.44;5063250;28;20033;-81
2023/01/11 09:15:45;;;;;;;7.30;1.83;;;;;;;8.34;95.12;100934.16;5064800;28;20024;-81
2023/01/11 09:18:11;;;;;;;10.07;1.75;;;;;;;8.31;95.27;100932.47;5062037;28;20382;-82
2023/01/11 09:20:36;;;;;;;9.88;1.60;;;;;;;8.28;95.37;100936.88;5058767;28;20039;-82
2023/01/11 09:23:02;;;;;;;12.43;2.25;;;;;;;8.26;95.14;100938.63;5063832;28;20028;-82
2023/01/11 09:25:27;;;;;;;9.25;1.58;;;;;;;8.22;95.21;100942.13;5062811;28;20029;-82
2023/01/11 09:27:52;;;;;;;9.25;1.55;;;;;;;8.17;94.88;100944.78;5065508;28;20024;-82
2023/01/11 09:30:21;;;;;;;8.60;1.50;;;;;;;8.15;95.19;100946.53;5059522;28;20396;-81
2023/01/11 09:32:48;;;;;;;10.85;1.38;;;;;;;8.12;95.01;100959.53;5043568;28;20738;-81
2023/01/11 09:35:15;;;;;;;11.40;1.60;;;;;;;8.09;95.11;100956.97;5065583;28;20067;-83
2023/01/11 09:37:44;;;;;;;9.27;1.42;;;;;;;8.09;94.96;100963.03;5070058;28;20024;-82
2023/01/11 09:40:47;;;;;;;8.88;1.30;;;;;;;8.08;95.21;100965.63;5061106;28;20032;-82
2023/01/11 09:43:14;;;;;;;9.65;1.42;;;;;;;8.01;95.16;100973.50;5029600;28;20043;-82
2023/01/11 09:45:45;;;;;;;11.80;1.55;;;;;;;8.00;95.12;100974.38;5043981;28;20031;-81
2023/01/11 09:48:31;;;;;;;8.43;1.33;;;;;;;8.01;95.11;100970.91;5067670;28;20020;-81
2023/01/11 09:50:57;;;;;;;9.48;1.40;;;;;;;7.97;94.98;100977.00;5063112;28;20037;-82
2023/01/11 09:53:35;;;;;;;8.50;1.38;;;;;;;7.98;95.04;100975.25;5060646;28;20021;-83
2023/01/11 09:56:04;;;;;;;12.13;1.48;;;;;;;7.99;95.14;100975.25;5074140;28;20036;-83
2023/01/11 09:58:54;;;;;;;8.98;1.83;;;;;;;8.00;95.21;100974.38;5059207;28;20086;-83
2023/01/11 10:01:37;;;;;;;7.47;1.60;;;;;;;8.01;94.83;100980.41;5068231;28;20532;-84
2023/01/11 10:04:24;;;;;;;8.95;2.10;;;;;;;8.01;95.01;100976.09;5063413;28;20040;-84
2023/01/11 10:07:21;;;;;;;12.70;1.83;;;;;;;8.00;94.80;100992.50;5039640;28;20021;-83
2023/01/11 10:10:13;;;;;;;9.05;1.55;;;;;;;8.01;94.88;100990.75;5061110;28;20029;-83
2023/01/11 10:12:45;;;;;;;;;;;;;;;8.04;95.20;100996.75;5042833;28;20372;-83
2023/01/11 10:15:37;;;;;;;9.82;1.60;;;;;;;8.07;94.50;100998.47;5062831;28;19913;-84
2023/01/11 10:18:09;;;;;;;;;;;;;;;8.10;94.64;101006.22;5060936;28;20029;-83
2023/01/11 10:20:40;;;;;;;;;;;;;;;8.11;94.44;100997.56;5067802;28;20287;-84
2023/01/11 10:23:13;;;;;;;3.97;0.85;;;;;;;8.12;93.96;100998.41;5062495;28;19912;-83
2023/01/11 10:25:49;;;;;;;13.07;1.85;;;;;;;8.15;93.66;101012.16;5061297;28;20077;-82
2023/01/11 10:28:24;;;;;;;8.98;1.80;;;;;;;8.18;93.19;101008.69;5064130;28;20361;-83
2023/01/11 10:34:11;;;;;;;9.75;1.35;;;;;;;8.27;93.43;100990.41;5062962;28;20032;-83
2023/01/11 10:37:17;;;;;;;7.38;1.60;;;;;;;8.30;93.20;100990.38;5058216;28;20436;-83
2023/01/11 10:40:13;;;;;;;8.65;1.65;;;;;;;8.37;92.53;100995.50;5071468;28;20558;-84
2023/01/11 10:43:03;;;;;;;10.85;1.50;;;;;;;8.39;92.10;100992.00;5046226;28;20029;-82
2023/01/11 10:45:45;;;;;;;12.98;2.33;;;;;;;8.43;91.88;100995.38;5065269;28;20021;-81
2023/01/11 10:48:36;;;;;;;11.73;1.80;;;;;;;8.45;91.85;101002.28;5049924;28;20329;-83
2023/01/11 10:51:10;;;;;;;10.20;1.98;;;;;;;8.48;91.38;101001.41;5053261;28;20119;-82
2023/01/11 10:53:42;;;;;;;11.32;1.90;;;;;;;8.51;91.24;101006.56;5062753;28;20064;-83
2023/01/11 10:56:13;;;;;;;;;;;;;;;8.56;92.02;101004.72;5061037;28;20024;-82
2023/01/11 10:59:15;;;;;;;10.65;1.90;;;;;;;8.57;91.33;101003.84;5061921;28;20057;-82
2023/01/11 11:01:49;;;;;;;13.65;2.20;;;;;;;8.58;90.86;101010.75;5063527;28;20031;-82
2023/01/11 11:04:54;;;;;;;12.05;2.10;;;;;;;8.61;90.62;101012.47;5059791;28;21273;-83
2023/01/11 11:07:45;;;;;;;9.73;1.90;;;;;;;8.64;90.66;101005.50;5059254;28;20052;-81
2023/01/11 11:10:20;;;;;;;8.68;1.90;;;;;;;8.65;89.60;101008.91;5063351;28;20159;-83
2023/01/11 11:13:08;;;;;;;11.20;1.80;;;;;;;8.69;89.55;101009.75;5061091;28;20055;-82
2023/01/11 11:15:58;;;;;;;9.02;1.83;;;;;;;8.70;89.40;101014.06;5061714;28;21491;-83
2023/01/11 11:18:23;;;;;;;13.10;1.92;;;;;;;8.70;87.76;101012.31;5059446;28;20025;-82
2023/01/11 11:20:49;;;;;;;14.00;2.20;;;;;;;8.72;87.71;101009.69;5060609;28;20036;-83
2023/01/11 11:23:18;;;;;;;10.52;2.15;;;;;;;8.73;87.53;101001.91;5060478;28;20033;-82
2023/01/11 11:25:48;;;;;;;11.25;1.85;;;;;;;8.76;87.03;101006.16;5062641;28;20540;-82
2023/01/11 11:28:14;;;;;;;13.13;2.33;;;;;;;8.78;86.42;101013.06;5055479;28;20082;-81
2023/01/11 11:30:45;;;;;;;14.45;2.25;;;;;;;8.82;86.22;101021.66;5062010;28;20163;-82
2023/01/11 11:33:32;;;;;;;13.55;2.05;;;;;;;8.85;85.87;101016.41;5062076;28;20035;-82
2023/01/11 11:36:03;;;;;;;10.80;2.05;;;;;;;8.91;85.45;101015.47;5061687;28;20028;-82
2023/01/11 11:38:34;;;;;;;9.57;2.00;;;;;;;8.96;85.55;101019.69;5060457;28;20367;-81
2023/01/11 11:41:03;;;;;;;10.82;1.73;;;;;;;9.00;84.94;101024.84;5042053;28;20036;-82
2023/01/11 11:43:29;;;;;;;12.27;1.67;;;;;;;9.01;84.71;101024.78;5073277;28;20419;-81
2023/01/11 11:46:00;;;;;;;13.32;1.73;;;;;;;9.06;84.58;101025.59;5062117;28;20120;-82
2023/01/11 11:48:28;;;;;;;7.47;1.60;;;;;;;9.07;83.11;101032.50;5060589;28;20120;-81
2023/01/11 11:50:56;;;;;;;10.15;1.67;;;;;;;9.07;83.86;101037.69;5061975;28;20113;-82
2023/01/11 11:53:46;;;;;;;16.42;2.38;;;;;;;9.13;84.47;101035.88;5045264;28;20039;-82
2023/01/11 11:56:34;;;;;;;10.63;2.03;;;;;;;9.16;83.38;101028.88;5043713;28;20471;-82
2023/01/11 11:59:06;;;;;;;12.02;2.35;;;;;;;9.17;82.28;101028.00;5058500;28;20025;-82
2023/01/11 12:01:35;;;;;;;14.25;2.10;;;;;;;9.26;81.59;101027.84;5060151;28;20024;-82
2023/01/11 12:04:11;;;;;;;8.75;1.65;;;;;;;9.30;81.93;101033.84;5061081;28;20411;-83